sensor_id;sensor_type;location;lat;lon;timestamp;pressure;altitude;pressure_sealevel;temperature
66403;BMP180;53212;52.112;5.144;2023-06-22T00:01:08;101981.40;;;18.80
66403;BMP180;53212;52.112;5.144;2023-06-22T00:03:33;101980.00;;;18.80
66403;BMP180;53212;52.112;5.144;2023-06-22T00:05:59;101976.00;;;18.80
66403;BMP180;53212;52.112;5.144;2023-06-22T00:08:24;101979.60;;;18.80
66403;BMP180;53212;52.112;5.144;2023-06-22T00:10:50;101982.00;;;18.80
66403;BMP180;53212;52.112;5.144;2023-06-22T00:13:17;101983.20;;;18.80
66403;BMP180;53212;52.112;5.144;2023-06-22T00:15:43;101984.40;;;18.80
66403;BMP180;53212;52.112;5.144;2023-06-22T00:18:10;101990.20;;;18.60
66403;BMP180;53212;52.112;5.144;2023-06-22T00:20:36;101987.00;;;18.50
66403;BMP180;53212;52.112;5.144;2023-06-22T00:23:05;101984.60;;;18.50
66403;BMP180;53212;52.112;5.144;2023-06-22T00:25:38;101984.80;;;18.54
66403;BMP180;53212;52.112;5.144;2023-06-22T00:28:06;101980.00;;;18.50
66403;BMP180;53212;52.112;5.144;2023-06-22T00:30:33;101972.80;;;18.60
66403;BMP180;53212;52.112;5.144;2023-06-22T00:32:59;101971.00;;;18.68
66403;BMP180;53212;52.112;5.144;2023-06-22T00:35:26;101964.00;;;18.70
66403;BMP180;53212;52.112;5.144;2023-06-22T00:37:55;101963.60;;;18.70
66403;BMP180;53212;52.112;5.144;2023-06-22T00:40:32;101962.00;;;18.62
66403;BMP180;53212;52.112;5.144;2023-06-22T00:42:58;101962.40;;;18.60
66403;BMP180;53212;52.112;5.144;2023-06-22T00:45:25;101956.60;;;18.60
66403;BMP180;53212;52.112;5.144;2023-06-22T00:47:57;101957.00;;;18.60
66403;BMP180;53212;52.112;5.144;2023-06-22T00:50:26;101954.60;;;18.52
66403;BMP180;53212;52.112;5.144;2023-06-22T00:52:58;101948.00;;;18.50
66403;BMP180;53212;52.112;5.144;2023-06-22T00:55:25;101951.20;;;18.40
66403;BMP180;53212;52.112;5.144;2023-06-22T00:57:52;101949.00;;;18.40
66403;BMP180;53212;52.112;5.144;2023-06-22T01:00:24;101947.60;;;18.40
66403;BMP180;53212;52.112;5.144;2023-06-22T01:02:51;101949.60;;;18.40
66403;BMP180;53212;52.112;5.144;2023-06-22T01:05:21;101947.60;;;18.44
66403;BMP180;53212;52.112;5.144;2023-06-22T01:11:17;101946.20;;;18.40
66403;BMP180;53212;52.112;5.144;2023-06-22T01:14:32;101938.60;;;18.40
66403;BMP180;53212;52.112;5.144;2023-06-22T01:17:01;101934.20;;;18.40
66403;BMP180;53212;52.112;5.144;2023-06-22T01:19:35;101942.60;;;18.36
66403;BMP180;53212;52.112;5.144;2023-06-22T01:22:05;101943.40;;;18.30
66403;BMP180;53212;52.112;5.144;2023-06-22T01:25:13;101940.20;;;18.28
66403;BMP180;53212;52.112;5.144;2023-06-22T01:30:27;101954.00;;;18.10
66403;BMP180;53212;52.112;5.144;2023-06-22T01:32:56;101956.20;;;18.00
66403;BMP180;53212;52.112;5.144;2023-06-22T01:35:22;101951.00;;;17.86
66403;BMP180;53212;52.112;5.144;2023-06-22T01:37:48;101944.40;;;17.80
66403;BMP180;53212;52.112;5.144;2023-06-22T01:40:14;101936.80;;;17.80
66403;BMP180;53212;52.112;5.144;2023-06-22T01:42:41;101935.20;;;17.88
66403;BMP180;53212;52.112;5.144;2023-06-22T01:45:09;101935.40;;;17.80
66403;BMP180;53212;52.112;5.144;2023-06-22T01:47:35;101939.80;;;17.80
66403;BMP180;53212;52.112;5.144;2023-06-22T01:50:01;101940.60;;;17.78
66403;BMP180;53212;52.112;5.144;2023-06-22T01:52:26;101945.00;;;17.70
66403;BMP180;53212;52.112;5.144;2023-06-22T01:54:52;101947.40;;;17.70
66403;BMP180;53212;52.112;5.144;2023-06-22T01:57:17;101944.80;;;17.60
66403;BMP180;53212;52.112;5.144;2023-06-22T02:00:03;101944.80;;;17.60
66403;BMP180;53212;52.112;5.144;2023-06-22T02:02:45;101940.20;;;17.60
66403;BMP180;53212;52.112;5.144;2023-06-22T02:05:16;101937.00;;;17.60
66403;BMP180;53212;52.112;5.144;2023-06-22T02:07:49;101936.60;;;17.60
66403;BMP180;53212;52.112;5.144;2023-06-22T02:10:20;101932.20;;;17.50
66403;BMP180;53212;52.112;5.144;2023-06-22T02:12:46;101931.40;;;17.40
66403;BMP180;53212;52.112;5.144;2023-06-22T02:15:13;101927.40;;;17.36
66403;BMP180;53212;52.112;5.144;2023-06-22T02:17:39;101924.60;;;17.30
66403;BMP180;53212;52.112;5.144;2023-06-22T02:20:19;101924.60;;;17.20
66403;BMP180;53212;52.112;5.144;2023-06-22T02:22:45;101929.00;;;17.18
66403;BMP180;53212;52.112;5.144;2023-06-22T02:25:10;101925.60;;;17.16
66403;BMP180;53212;52.112;5.144;2023-06-22T02:27:36;101917.60;;;17.20
66403;BMP180;53212;52.112;5.144;2023-06-22T02:30:09;101915.20;;;17.22
66403;BMP180;53212;52.112;5.144;2023-06-22T02:32:35;101918.60;;;17.20
66403;BMP180;53212;52.112;5.144;2023-06-22T02:35:01;101914.80;;;17.16
66403;BMP180;53212;52.112;5.144;2023-06-22T02:37:31;101910.00;;;17.20
66403;BMP180;53212;52.112;5.144;2023-06-22T02:39:56;101911.00;;;17.20
66403;BMP180;53212;52.112;5.144;2023-06-22T02:42:22;101910.80;;;17.20
66403;BMP180;53212;52.112;5.144;2023-06-22T02:44:47;101908.60;;;17.20
66403;BMP180;53212;52.112;5.144;2023-06-22T02:47:13;101910.60;;;17.20
66403;BMP180;53212;52.112;5.144;2023-06-22T02:49:38;101918.40;;;17.10
66403;BMP180;53212;52.112;5.144;2023-06-22T02:52:04;101919.40;;;17.00
66403;BMP180;53212;52.112;5.144;2023-06-22T02:54:29;101917.40;;;17.00
66403;BMP180;53212;52.112;5.144;2023-06-22T02:56:55;101917.20;;;17.04
66403;BMP180;53212;52.112;5.144;2023-06-22T02:59:20;101922.40;;;17.10
66403;BMP180;53212;52.112;5.144;2023-06-22T03:01:50;101920.20;;;17.10
66403;BMP180;53212;52.112;5.144;2023-06-22T03:04:17;101919.20;;;17.10
66403;BMP180;53212;52.112;5.144;2023-06-22T03:06:43;101920.60;;;17.10
66403;BMP180;53212;52.112;5.144;2023-06-22T03:09:08;101917.00;;;17.00
66403;BMP180;53212;52.112;5.144;2023-06-22T03:11:34;101916.40;;;16.90
66403;BMP180;53212;52.112;5.144;2023-06-22T03:14:02;101906.60;;;16.82
66403;BMP180;53212;52.112;5.144;2023-06-22T03:16:28;101911.20;;;16.90
66403;BMP180;53212;52.112;5.144;2023-06-22T03:18:54;101910.60;;;16.90
66403;BMP180;53212;52.112;5.144;2023-06-22T03:21:22;101911.20;;;16.90
66403;BMP180;53212;52.112;5.144;2023-06-22T03:23:48;101920.00;;;16.90
66403;BMP180;53212;52.112;5.144;2023-06-22T03:26:17;101914.20;;;16.90
66403;BMP180;53212;52.112;5.144;2023-06-22T03:28:43;101902.20;;;16.80
66403;BMP180;53212;52.112;5.144;2023-06-22T03:31:08;101892.80;;;16.80
66403;BMP180;53212;52.112;5.144;2023-06-22T03:33:34;101894.20;;;16.90
66403;BMP180;53212;52.112;5.144;2023-06-22T03:35:59;101896.40;;;16.90
66403;BMP180;53212;52.112;5.144;2023-06-22T03:38:24;101896.40;;;16.90
66403;BMP180;53212;52.112;5.144;2023-06-22T03:40:50;101890.20;;;16.90
66403;BMP180;53212;52.112;5.144;2023-06-22T03:43:15;101887.60;;;16.90
66403;BMP180;53212;52.112;5.144;2023-06-22T03:45:41;101886.80;;;16.90
66403;BMP180;53212;52.112;5.144;2023-06-22T03:48:06;101885.00;;;16.90
66403;BMP180;53212;52.112;5.144;2023-06-22T03:50:32;101884.80;;;16.84
66403;BMP180;53212;52.112;5.144;2023-06-22T03:52:57;101891.40;;;16.90
66403;BMP180;53212;52.112;5.144;2023-06-22T03:55:23;101888.80;;;16.90
66403;BMP180;53212;52.112;5.144;2023-06-22T03:57:48;101881.80;;;16.96
66403;BMP180;53212;52.112;5.144;2023-06-22T04:00:14;101887.00;;;17.00
66403;BMP180;53212;52.112;5.144;2023-06-22T04:02:41;101878.20;;;16.98
66403;BMP180;53212;52.112;5.144;2023-06-22T04:05:09;101876.40;;;17.00
66403;BMP180;53212;52.112;5.144;2023-06-22T04:07:34;101879.40;;;17.00
66403;BMP180;53212;52.112;5.144;2023-06-22T04:10:04;101878.80;;;17.08
66403;BMP180;53212;52.112;5.144;2023-06-22T04:12:29;101880.00;;;17.10
66403;BMP180;53212;52.112;5.144;2023-06-22T04:14:55;101874.00;;;17.20
66403;BMP180;53212;52.112;5.144;2023-06-22T04:17:20;101872.00;;;17.20
66403;BMP180;53212;52.112;5.144;2023-06-22T04:19:46;101869.00;;;17.30
66403;BMP180;53212;52.112;5.144;2023-06-22T04:22:11;101868.40;;;17.40
66403;BMP180;53212;52.112;5.144;2023-06-22T04:24:37;101869.40;;;17.40
66403;BMP180;53212;52.112;5.144;2023-06-22T04:27:03;101860.20;;;17.44
66403;BMP180;53212;52.112;5.144;2023-06-22T04:29:29;101862.80;;;17.50
66403;BMP180;53212;52.112;5.144;2023-06-22T04:31:59;101866.60;;;17.50
66403;BMP180;53212;52.112;5.144;2023-06-22T04:34:29;101862.20;;;17.60
66403;BMP180;53212;52.112;5.144;2023-06-22T04:36:55;101861.60;;;17.66
66403;BMP180;53212;52.112;5.144;2023-06-22T04:39:20;101871.00;;;17.70
66403;BMP180;53212;52.112;5.144;2023-06-22T04:41:46;101873.60;;;17.70
66403;BMP180;53212;52.112;5.144;2023-06-22T04:44:17;101879.60;;;17.80
66403;BMP180;53212;52.112;5.144;2023-06-22T04:46:51;101879.60;;;17.90
66403;BMP180;53212;52.112;5.144;2023-06-22T04:49:20;101876.40;;;17.92
66403;BMP180;53212;52.112;5.144;2023-06-22T04:51:47;101872.60;;;18.00
66403;BMP180;53212;52.112;5.144;2023-06-22T04:54:13;101873.20;;;18.12
66403;BMP180;53212;52.112;5.144;2023-06-22T04:56:38;101878.20;;;18.20
66403;BMP180;53212;52.112;5.144;2023-06-22T04:59:06;101880.00;;;18.30
66403;BMP180;53212;52.112;5.144;2023-06-22T05:01:32;101883.80;;;18.46
66403;BMP180;53212;52.112;5.144;2023-06-22T05:03:58;101884.80;;;18.60
66403;BMP180;53212;52.112;5.144;2023-06-22T05:06:27;101884.60;;;18.70
66403;BMP180;53212;52.112;5.144;2023-06-22T05:08:57;101878.80;;;18.80
66403;BMP180;53212;52.112;5.144;2023-06-22T05:11:27;101874.20;;;18.90
66403;BMP180;53212;52.112;5.144;2023-06-22T05:13:53;101875.00;;;19.00
66403;BMP180;53212;52.112;5.144;2023-06-22T05:16:20;101871.20;;;19.10
66403;BMP180;53212;52.112;5.144;2023-06-22T05:18:55;101874.00;;;19.20
66403;BMP180;53212;52.112;5.144;2023-06-22T05:21:26;101875.00;;;19.48
66403;BMP180;53212;52.112;5.144;2023-06-22T05:23:56;101874.60;;;19.88
66403;BMP180;53212;52.112;5.144;2023-06-22T05:26:26;101872.60;;;20.20
66403;BMP180;53212;52.112;5.144;2023-06-22T05:28:53;101870.40;;;20.30
66403;BMP180;53212;52.112;5.144;2023-06-22T05:31:19;101877.00;;;20.70
66403;BMP180;53212;52.112;5.144;2023-06-22T05:33:46;101876.80;;;21.12
66403;BMP180;53212;52.112;5.144;2023-06-22T05:36:12;101882.40;;;21.62
66403;BMP180;53212;52.112;5.144;2023-06-22T05:38:41;101884.80;;;21.98
66403;BMP180;53212;52.112;5.144;2023-06-22T05:41:08;101879.00;;;22.34
66403;BMP180;53212;52.112;5.144;2023-06-22T05:43:34;101879.20;;;22.40
66403;BMP180;53212;52.112;5.144;2023-06-22T05:46:04;101883.20;;;22.26
66403;BMP180;53212;52.112;5.144;2023-06-22T05:48:29;101886.20;;;22.66
66403;BMP180;53212;52.112;5.144;2023-06-22T05:50:55;101888.60;;;23.22
66403;BMP180;53212;52.112;5.144;2023-06-22T05:53:20;101887.60;;;23.50
66403;BMP180;53212;52.112;5.144;2023-06-22T05:55:46;101890.20;;;23.70
66403;BMP180;53212;52.112;5.144;2023-06-22T05:58:12;101890.00;;;23.70
66403;BMP180;53212;52.112;5.144;2023-06-22T06:00:39;101891.80;;;23.60
66403;BMP180;53212;52.112;5.144;2023-06-22T06:03:07;101890.00;;;23.60
66403;BMP180;53212;52.112;5.144;2023-06-22T06:05:33;101885.20;;;23.40
66403;BMP180;53212;52.112;5.144;2023-06-22T06:08:05;101881.20;;;23.30
66403;BMP180;53212;52.112;5.144;2023-06-22T06:10:32;101887.00;;;23.46
66403;BMP180;53212;52.112;5.144;2023-06-22T06:12:59;101884.20;;;24.04
66403;BMP180;53212;52.112;5.144;2023-06-22T06:15:27;101882.00;;;24.60
66403;BMP180;53212;52.112;5.144;2023-06-22T06:17:52;101883.60;;;24.78
66403;BMP180;53212;52.112;5.144;2023-06-22T06:20:21;101881.20;;;24.80
66403;BMP180;53212;52.112;5.144;2023-06-22T06:22:47;101873.20;;;24.80
66403;BMP180;53212;52.112;5.144;2023-06-22T06:25:13;101870.60;;;24.80
66403;BMP180;53212;52.112;5.144;2023-06-22T06:27:45;101865.40;;;24.80
66403;BMP180;53212;52.112;5.144;2023-06-22T06:30:13;101861.20;;;24.90
66403;BMP180;53212;52.112;5.144;2023-06-22T06:32:39;101858.00;;;25.14
66403;BMP180;53212;52.112;5.144;2023-06-22T06:35:09;101859.20;;;25.48
66403;BMP180;53212;52.112;5.144;2023-06-22T06:37:40;101858.20;;;25.76
66403;BMP180;53212;52.112;5.144;2023-06-22T06:40:11;101861.00;;;25.90
66403;BMP180;53212;52.112;5.144;2023-06-22T06:42:45;101859.40;;;26.00
66403;BMP180;53212;52.112;5.144;2023-06-22T06:45:12;101856.00;;;26.20
66403;BMP180;53212;52.112;5.144;2023-06-22T06:47:39;101854.80;;;26.36
66403;BMP180;53212;52.112;5.144;2023-06-22T06:50:06;101846.40;;;26.60
66403;BMP180;53212;52.112;5.144;2023-06-22T06:52:32;101844.20;;;26.90
66403;BMP180;53212;52.112;5.144;2023-06-22T06:54:59;101848.00;;;27.20
66403;BMP180;53212;52.112;5.144;2023-06-22T06:57:24;101849.20;;;27.38
66403;BMP180;53212;52.112;5.144;2023-06-22T06:59:55;101845.60;;;27.50
66403;BMP180;53212;52.112;5.144;2023-06-22T07:02:22;101850.60;;;27.54
66403;BMP180;53212;52.112;5.144;2023-06-22T07:04:48;101848.20;;;27.60
66403;BMP180;53212;52.112;5.144;2023-06-22T07:07:14;101846.80;;;27.78
66403;BMP180;53212;52.112;5.144;2023-06-22T07:09:39;101847.80;;;27.90
66403;BMP180;53212;52.112;5.144;2023-06-22T07:12:06;101849.00;;;28.00
66403;BMP180;53212;52.112;5.144;2023-06-22T07:14:31;101845.40;;;27.70
66403;BMP180;53212;52.112;5.144;2023-06-22T07:16:58;101842.60;;;27.40
66403;BMP180;53212;52.112;5.144;2023-06-22T07:19:28;101849.80;;;27.20
66403;BMP180;53212;52.112;5.144;2023-06-22T07:21:54;101845.20;;;27.30
66403;BMP180;53212;52.112;5.144;2023-06-22T07:24:21;101850.00;;;27.30
66403;BMP180;53212;52.112;5.144;2023-06-22T07:26:48;101849.00;;;27.50
66403;BMP180;53212;52.112;5.144;2023-06-22T07:29:18;101852.40;;;27.82
66403;BMP180;53212;52.112;5.144;2023-06-22T07:31:46;101848.40;;;28.00
66403;BMP180;53212;52.112;5.144;2023-06-22T07:34:13;101844.20;;;28.00
66403;BMP180;53212;52.112;5.144;2023-06-22T07:36:38;101844.20;;;28.10
66403;BMP180;53212;52.112;5.144;2023-06-22T07:39:04;101844.00;;;28.20
66403;BMP180;53212;52.112;5.144;2023-06-22T07:41:30;101846.40;;;28.10
66403;BMP180;53212;52.112;5.144;2023-06-22T07:43:56;101845.20;;;28.00
66403;BMP180;53212;52.112;5.144;2023-06-22T07:46:22;101838.40;;;28.10
66403;BMP180;53212;52.112;5.144;2023-06-22T07:48:48;101830.00;;;28.30
66403;BMP180;53212;52.112;5.144;2023-06-22T07:51:13;101832.00;;;28.40
66403;BMP180;53212;52.112;5.144;2023-06-22T07:53:44;101831.60;;;28.50
66403;BMP180;53212;52.112;5.144;2023-06-22T07:56:13;101830.00;;;28.50
66403;BMP180;53212;52.112;5.144;2023-06-22T07:58:44;101830.60;;;28.40
66403;BMP180;53212;52.112;5.144;2023-06-22T08:01:11;101830.20;;;28.40
66403;BMP180;53212;52.112;5.144;2023-06-22T08:03:36;101825.60;;;28.20
66403;BMP180;53212;52.112;5.144;2023-06-22T08:06:02;101822.20;;;28.10
66403;BMP180;53212;52.112;5.144;2023-06-22T08:08:28;101814.80;;;28.10
66403;BMP180;53212;52.112;5.144;2023-06-22T08:10:54;101818.20;;;28.10
66403;BMP180;53212;52.112;5.144;2023-06-22T08:13:20;101811.80;;;28.20
66403;BMP180;53212;52.112;5.144;2023-06-22T08:15:45;101803.40;;;28.24
66403;BMP180;53212;52.112;5.144;2023-06-22T08:18:11;101803.80;;;28.38
66403;BMP180;53212;52.112;5.144;2023-06-22T08:20:36;101799.20;;;28.30
66403;BMP180;53212;52.112;5.144;2023-06-22T08:23:02;101797.40;;;28.40
66403;BMP180;53212;52.112;5.144;2023-06-22T08:25:33;101788.20;;;28.30
66403;BMP180;53212;52.112;5.144;2023-06-22T08:27:59;101788.00;;;28.30
66403;BMP180;53212;52.112;5.144;2023-06-22T08:30:25;101787.00;;;28.30
66403;BMP180;53212;52.112;5.144;2023-06-22T08:32:51;101781.20;;;28.20
66403;BMP180;53212;52.112;5.144;2023-06-22T08:35:16;101774.80;;;28.10
66403;BMP180;53212;52.112;5.144;2023-06-22T08:37:42;101779.40;;;27.98
66403;BMP180;53212;52.112;5.144;2023-06-22T08:40:09;101776.00;;;27.90
66403;BMP180;53212;52.112;5.144;2023-06-22T08:42:36;101779.40;;;27.90
66403;BMP180;53212;52.112;5.144;2023-06-22T08:45:03;101777.60;;;27.70
66403;BMP180;53212;52.112;5.144;2023-06-22T08:47:29;101774.20;;;27.60
66403;BMP180;53212;52.112;5.144;2023-06-22T08:49:55;101769.20;;;27.50
66403;BMP180;53212;52.112;5.144;2023-06-22T08:52:21;101773.60;;;27.42
66403;BMP180;53212;52.112;5.144;2023-06-22T08:54:48;101772.40;;;27.40
66403;BMP180;53212;52.112;5.144;2023-06-22T08:57:14;101770.40;;;27.40
66403;BMP180;53212;52.112;5.144;2023-06-22T08:59:39;101771.60;;;27.30
66403;BMP180;53212;52.112;5.144;2023-06-22T09:02:05;101778.40;;;27.20
66403;BMP180;53212;52.112;5.144;2023-06-22T09:04:31;101774.40;;;27.10
66403;BMP180;53212;52.112;5.144;2023-06-22T09:07:03;101767.00;;;27.08
66403;BMP180;53212;52.112;5.144;2023-06-22T09:09:29;101765.80;;;27.04
66403;BMP180;53212;52.112;5.144;2023-06-22T09:11:54;101766.80;;;27.00
66403;BMP180;53212;52.112;5.144;2023-06-22T09:14:20;101762.20;;;27.00
66403;BMP180;53212;52.112;5.144;2023-06-22T09:16:45;101757.80;;;27.00
66403;BMP180;53212;52.112;5.144;2023-06-22T09:19:11;101757.80;;;27.20
66403;BMP180;53212;52.112;5.144;2023-06-22T09:21:37;101755.40;;;27.38
66403;BMP180;53212;52.112;5.144;2023-06-22T09:24:03;101760.20;;;27.50
66403;BMP180;53212;52.112;5.144;2023-06-22T09:26:29;101761.20;;;27.56
66403;BMP180;53212;52.112;5.144;2023-06-22T09:28:54;101763.60;;;27.60
66403;BMP180;53212;52.112;5.144;2023-06-22T09:31:20;101764.80;;;27.62
66403;BMP180;53212;52.112;5.144;2023-06-22T09:33:54;101767.80;;;27.60
66403;BMP180;53212;52.112;5.144;2023-06-22T09:36:23;101768.20;;;27.60
66403;BMP180;53212;52.112;5.144;2023-06-22T09:38:49;101762.20;;;27.70
66403;BMP180;53212;52.112;5.144;2023-06-22T09:41:20;101761.60;;;27.80
66403;BMP180;53212;52.112;5.144;2023-06-22T09:43:46;101766.20;;;27.80
66403;BMP180;53212;52.112;5.144;2023-06-22T09:46:11;101760.00;;;27.90
66403;BMP180;53212;52.112;5.144;2023-06-22T09:48:37;101760.80;;;28.00
66403;BMP180;53212;52.112;5.144;2023-06-22T09:51:02;101760.40;;;28.20
66403;BMP180;53212;52.112;5.144;2023-06-22T09:53:28;101756.60;;;28.30
66403;BMP180;53212;52.112;5.144;2023-06-22T09:55:53;101759.80;;;28.40
66403;BMP180;53212;52.112;5.144;2023-06-22T09:58:19;101757.20;;;28.40
66403;BMP180;53212;52.112;5.144;2023-06-22T10:00:44;101749.60;;;28.30
66403;BMP180;53212;52.112;5.144;2023-06-22T10:03:10;101745.40;;;28.30
66403;BMP180;53212;52.112;5.144;2023-06-22T10:05:35;101751.00;;;28.30
66403;BMP180;53212;52.112;5.144;2023-06-22T10:08:01;101746.00;;;28.30
66403;BMP180;53212;52.112;5.144;2023-06-22T10:10:26;101747.80;;;28.30
66403;BMP180;53212;52.112;5.144;2023-06-22T10:12:57;101746.60;;;28.20
66403;BMP180;53212;52.112;5.144;2023-06-22T10:15:23;101756.60;;;28.10
66403;BMP180;53212;52.112;5.144;2023-06-22T10:17:49;101748.00;;;27.90
66403;BMP180;53212;52.112;5.144;2023-06-22T10:20:14;101747.80;;;27.80
66403;BMP180;53212;52.112;5.144;2023-06-22T10:22:44;101755.00;;;27.80
66403;BMP180;53212;52.112;5.144;2023-06-22T10:25:12;101759.20;;;27.60
66403;BMP180;53212;52.112;5.144;2023-06-22T10:27:39;101748.20;;;27.50
66403;BMP180;53212;52.112;5.144;2023-06-22T10:30:09;101747.20;;;27.40
66403;BMP180;53212;52.112;5.144;2023-06-22T10:32:37;101751.20;;;27.34
66403;BMP180;53212;52.112;5.144;2023-06-22T10:35:03;101752.40;;;27.30
66403;BMP180;53212;52.112;5.144;2023-06-22T10:37:28;101755.00;;;27.20
66403;BMP180;53212;52.112;5.144;2023-06-22T10:39:54;101755.20;;;27.10
66403;BMP180;53212;52.112;5.144;2023-06-22T10:42:19;101756.20;;;27.10
66403;BMP180;53212;52.112;5.144;2023-06-22T10:44:45;101754.80;;;27.06
66403;BMP180;53212;52.112;5.144;2023-06-22T10:47:10;101759.60;;;27.00
66403;BMP180;53212;52.112;5.144;2023-06-22T10:49:39;101761.00;;;26.90
66403;BMP180;53212;52.112;5.144;2023-06-22T10:52:08;101762.60;;;26.80
66403;BMP180;53212;52.112;5.144;2023-06-22T10:54:35;101764.40;;;26.70
66403;BMP180;53212;52.112;5.144;2023-06-22T10:57:02;101758.00;;;26.70
66403;BMP180;53212;52.112;5.144;2023-06-22T10:59:28;101751.40;;;26.60
66403;BMP180;53212;52.112;5.144;2023-06-22T11:01:56;101757.80;;;26.50
66403;BMP180;53212;52.112;5.144;2023-06-22T11:04:21;101760.20;;;26.40
66403;BMP180;53212;52.112;5.144;2023-06-22T11:06:49;101756.60;;;26.40
66403;BMP180;53212;52.112;5.144;2023-06-22T11:09:15;101756.00;;;26.40
66403;BMP180;53212;52.112;5.144;2023-06-22T11:11:46;101755.00;;;26.30
66403;BMP180;53212;52.112;5.144;2023-06-22T11:14:12;101751.20;;;26.30
66403;BMP180;53212;52.112;5.144;2023-06-22T11:16:37;101753.00;;;26.20
66403;BMP180;53212;52.112;5.144;2023-06-22T11:19:05;101754.40;;;26.20
66403;BMP180;53212;52.112;5.144;2023-06-22T11:21:31;101752.80;;;26.20
66403;BMP180;53212;52.112;5.144;2023-06-22T11:23:57;101756.20;;;26.20
66403;BMP180;53212;52.112;5.144;2023-06-22T11:26:24;101757.40;;;26.20
66403;BMP180;53212;52.112;5.144;2023-06-22T11:28:50;101760.20;;;26.20
66403;BMP180;53212;52.112;5.144;2023-06-22T11:31:15;101756.20;;;26.20
66403;BMP180;53212;52.112;5.144;2023-06-22T11:33:41;101755.20;;;26.10
66403;BMP180;53212;52.112;5.144;2023-06-22T11:36:06;101755.40;;;26.10
66403;BMP180;53212;52.112;5.144;2023-06-22T11:38:32;101748.40;;;26.10
66403;BMP180;53212;52.112;5.144;2023-06-22T11:40:58;101748.60;;;26.10
66403;BMP180;53212;52.112;5.144;2023-06-22T11:43:25;101743.40;;;26.10
66403;BMP180;53212;52.112;5.144;2023-06-22T11:45:50;101740.40;;;26.10
66403;BMP180;53212;52.112;5.144;2023-06-22T11:48:16;101735.20;;;26.20
66403;BMP180;53212;52.112;5.144;2023-06-22T11:50:41;101731.80;;;26.30
66403;BMP180;53212;52.112;5.144;2023-06-22T11:53:07;101730.20;;;26.30
66403;BMP180;53212;52.112;5.144;2023-06-22T11:55:32;101724.60;;;26.30
66403;BMP180;53212;52.112;5.144;2023-06-22T11:57:58;101717.40;;;26.28
66403;BMP180;53212;52.112;5.144;2023-06-22T12:00:26;101715.20;;;26.14
66403;BMP180;53212;52.112;5.144;2023-06-22T12:02:52;101710.40;;;26.00
66403;BMP180;53212;52.112;5.144;2023-06-22T12:05:21;101708.40;;;25.90
66403;BMP180;53212;52.112;5.144;2023-06-22T12:07:48;101700.60;;;25.80
66403;BMP180;53212;52.112;5.144;2023-06-22T12:10:14;101699.80;;;25.80
66403;BMP180;53212;52.112;5.144;2023-06-22T12:12:40;101698.40;;;25.70
66403;BMP180;53212;52.112;5.144;2023-06-22T12:15:06;101692.60;;;25.80
66403;BMP180;53212;52.112;5.144;2023-06-22T12:17:34;101699.80;;;25.90
66403;BMP180;53212;52.112;5.144;2023-06-22T12:19:59;101690.60;;;25.90
66403;BMP180;53212;52.112;5.144;2023-06-22T12:22:25;101691.80;;;25.92
66403;BMP180;53212;52.112;5.144;2023-06-22T12:24:51;101690.20;;;26.00
66403;BMP180;53212;52.112;5.144;2023-06-22T12:27:17;101694.40;;;26.10
66403;BMP180;53212;52.112;5.144;2023-06-22T12:29:45;101693.80;;;26.10
66403;BMP180;53212;52.112;5.144;2023-06-22T12:32:11;101689.00;;;26.00
66403;BMP180;53212;52.112;5.144;2023-06-22T12:34:39;101692.00;;;25.90
66403;BMP180;53212;52.112;5.144;2023-06-22T12:37:05;101686.60;;;25.80
66403;BMP180;53212;52.112;5.144;2023-06-22T12:39:33;101683.60;;;25.68
66403;BMP180;53212;52.112;5.144;2023-06-22T12:41:59;101686.80;;;25.52
66403;BMP180;53212;52.112;5.144;2023-06-22T12:44:25;101687.00;;;25.50
66403;BMP180;53212;52.112;5.144;2023-06-22T12:46:50;101678.80;;;25.40
66403;BMP180;53212;52.112;5.144;2023-06-22T12:49:16;101680.40;;;25.20
66403;BMP180;53212;52.112;5.144;2023-06-22T12:51:42;101675.00;;;25.16
66403;BMP180;53212;52.112;5.144;2023-06-22T12:54:08;101671.80;;;25.10
66403;BMP180;53212;52.112;5.144;2023-06-22T12:56:35;101669.20;;;25.10
66403;BMP180;53212;52.112;5.144;2023-06-22T12:59:00;101671.00;;;25.10
66403;BMP180;53212;52.112;5.144;2023-06-22T13:01:27;101664.00;;;25.00
66403;BMP180;53212;52.112;5.144;2023-06-22T13:03:53;101664.20;;;24.90
66403;BMP180;53212;52.112;5.144;2023-06-22T13:06:19;101667.60;;;24.80
66403;BMP180;53212;52.112;5.144;2023-06-22T13:08:45;101666.00;;;24.66
66403;BMP180;53212;52.112;5.144;2023-06-22T13:11:10;101661.80;;;24.54
66403;BMP180;53212;52.112;5.144;2023-06-22T13:13:36;101664.20;;;24.40
66403;BMP180;53212;52.112;5.144;2023-06-22T13:16:01;101664.40;;;24.30
66403;BMP180;53212;52.112;5.144;2023-06-22T13:18:27;101664.80;;;24.20
66403;BMP180;53212;52.112;5.144;2023-06-22T13:20:52;101660.60;;;24.10
66403;BMP180;53212;52.112;5.144;2023-06-22T13:23:22;101664.40;;;24.00
66403;BMP180;53212;52.112;5.144;2023-06-22T13:25:48;101665.40;;;23.88
66403;BMP180;53212;52.112;5.144;2023-06-22T13:28:13;101666.00;;;23.70
66403;BMP180;53212;52.112;5.144;2023-06-22T13:30:41;101669.00;;;23.54
66403;BMP180;53212;52.112;5.144;2023-06-22T13:33:09;101669.20;;;23.40
66403;BMP180;53212;52.112;5.144;2023-06-22T13:35:34;101669.60;;;23.36
66403;BMP180;53212;52.112;5.144;2023-06-22T13:38:03;101671.60;;;23.20
66403;BMP180;53212;52.112;5.144;2023-06-22T13:40:29;101675.20;;;23.10
66403;BMP180;53212;52.112;5.144;2023-06-22T13:42:56;101673.80;;;23.00
66403;BMP180;53212;52.112;5.144;2023-06-22T13:45:21;101669.40;;;22.90
66403;BMP180;53212;52.112;5.144;2023-06-22T13:47:47;101665.80;;;22.80
66403;BMP180;53212;52.112;5.144;2023-06-22T13:50:12;101667.60;;;22.70
66403;BMP180;53212;52.112;5.144;2023-06-22T13:52:39;101664.20;;;22.60
66403;BMP180;53212;52.112;5.144;2023-06-22T13:55:05;101656.80;;;22.50
66403;BMP180;53212;52.112;5.144;2023-06-22T13:57:33;101649.20;;;22.40
66403;BMP180;53212;52.112;5.144;2023-06-22T13:59:59;101647.80;;;22.30
66403;BMP180;53212;52.112;5.144;2023-06-22T14:02:26;101646.80;;;22.22